sensor_id;sensor_type;location;lat;lon;timestamp;pressure;altitude;pressure_sealevel;temperature;humidity
71145;BME280;58812;47.698;17.726;2023-04-28T00:01:45;100675.34;;;4.51;81.51
71145;BME280;58812;47.698;17.726;2023-04-28T00:04:10;100673.12;;;4.58;80.89
71145;BME280;58812;47.698;17.726;2023-04-28T00:06:36;100675.22;;;4.52;80.80
71145;BME280;58812;47.698;17.726;2023-04-28T00:09:02;100673.53;;;4.37;81.58
71145;BME280;58812;47.698;17.726;2023-04-28T00:11:28;100680.47;;;4.40;81.10
71145;BME280;58812;47.698;17.726;2023-04-28T00:13:53;100669.19;;;4.36;81.15
71145;BME280;58812;47.698;17.726;2023-04-28T00:16:18;100671.84;;;4.36;81.40
71145;BME280;58812;47.698;17.726;2023-04-28T00:18:44;100675.62;;;4.32;81.46
71145;BME280;58812;47.698;17.726;2023-04-28T00:21:09;100680.66;;;4.22;81.74
71145;BME280;58812;47.698;17.726;2023-04-28T00:23:34;100680.38;;;4.13;81.77
71145;BME280;58812;47.698;17.726;2023-04-28T00:26:00;100683.88;;;4.13;81.74
71145;BME280;58812;47.698;17.726;2023-04-28T00:28:25;100683.31;;;4.08;82.02
71145;BME280;58812;47.698;17.726;2023-04-28T00:30:51;100688.91;;;4.04;82.61
71145;BME280;58812;47.698;17.726;2023-04-28T00:33:16;100676.59;;;4.02;82.31
71145;BME280;58812;47.698;17.726;2023-04-28T00:35:41;100691.84;;;3.99;82.82
71145;BME280;58812;47.698;17.726;2023-04-28T00:38:07;100696.09;;;4.01;82.81
71145;BME280;58812;47.698;17.726;2023-04-28T00:40:33;100682.16;;;3.84;83.44
71145;BME280;58812;47.698;17.726;2023-04-28T00:42:59;100699.69;;;3.86;83.02
71145;BME280;58812;47.698;17.726;2023-04-28T00:45:24;100689.84;;;3.88;83.15
71145;BME280;58812;47.698;17.726;2023-04-28T00:47:50;100697.03;;;3.86;83.06
71145;BME280;58812;47.698;17.726;2023-04-28T00:50:15;100688.31;;;3.84;83.13
71145;BME280;58812;47.698;17.726;2023-04-28T00:52:42;100676.22;;;3.80;82.91
71145;BME280;58812;47.698;17.726;2023-04-28T00:55:08;100676.41;;;3.77;82.98
71145;BME280;58812;47.698;17.726;2023-04-28T00:57:34;100678.28;;;3.75;83.10
71145;BME280;58812;47.698;17.726;2023-04-28T01:00:00;100675.06;;;3.70;83.64
71145;BME280;58812;47.698;17.726;2023-04-28T01:02:26;100680.75;;;3.64;84.01
71145;BME280;58812;47.698;17.726;2023-04-28T01:04:53;100678.63;;;3.55;84.50
71145;BME280;58812;47.698;17.726;2023-04-28T01:07:20;100678.56;;;3.56;84.10
71145;BME280;58812;47.698;17.726;2023-04-28T01:09:45;100684.34;;;3.63;84.08
71145;BME280;58812;47.698;17.726;2023-04-28T01:12:12;100681.09;;;3.58;84.74
71145;BME280;58812;47.698;17.726;2023-04-28T01:14:37;100675.72;;;3.59;84.29
71145;BME280;58812;47.698;17.726;2023-04-28T01:17:03;100686.97;;;3.63;83.64
71145;BME280;58812;47.698;17.726;2023-04-28T01:19:28;100679.50;;;3.69;83.85
71145;BME280;58812;47.698;17.726;2023-04-28T01:21:54;100676.97;;;3.68;84.28
71145;BME280;58812;47.698;17.726;2023-04-28T01:24:20;100683.91;;;3.55;84.51
71145;BME280;58812;47.698;17.726;2023-04-28T01:26:45;100686.09;;;3.48;84.47
71145;BME280;58812;47.698;17.726;2023-04-28T01:29:11;100693.44;;;3.43;84.27
71145;BME280;58812;47.698;17.726;2023-04-28T01:31:36;100687.13;;;3.45;84.72
71145;BME280;58812;47.698;17.726;2023-04-28T01:34:02;100693.75;;;3.53;84.41
71145;BME280;58812;47.698;17.726;2023-04-28T01:36:27;100679.09;;;3.47;84.12
71145;BME280;58812;47.698;17.726;2023-04-28T01:38:53;100684.28;;;3.48;84.33
71145;BME280;58812;47.698;17.726;2023-04-28T01:41:19;100694.34;;;3.58;84.56
71145;BME280;58812;47.698;17.726;2023-04-28T01:43:44;100697.87;;;3.42;85.16
71145;BME280;58812;47.698;17.726;2023-04-28T01:46:10;100695.50;;;3.38;85.22
71145;BME280;58812;47.698;17.726;2023-04-28T01:48:35;100691.56;;;3.45;84.73
71145;BME280;58812;47.698;17.726;2023-04-28T01:51:01;100699.16;;;3.51;84.94
71145;BME280;58812;47.698;17.726;2023-04-28T01:53:26;100691.78;;;3.56;84.92
71145;BME280;58812;47.698;17.726;2023-04-28T01:55:52;100688.25;;;3.56;84.77
71145;BME280;58812;47.698;17.726;2023-04-28T01:58:18;100688.94;;;3.59;84.99
71145;BME280;58812;47.698;17.726;2023-04-28T02:00:43;100690.00;;;3.57;85.30
71145;BME280;58812;47.698;17.726;2023-04-28T02:03:09;100690.28;;;3.66;85.65
71145;BME280;58812;47.698;17.726;2023-04-28T02:05:34;100689.16;;;3.70;85.47
71145;BME280;58812;47.698;17.726;2023-04-28T02:07:59;100695.56;;;3.66;85.47
71145;BME280;58812;47.698;17.726;2023-04-28T02:10:25;100700.00;;;3.66;84.97
71145;BME280;58812;47.698;17.726;2023-04-28T02:12:51;100710.25;;;3.72;85.60
71145;BME280;58812;47.698;17.726;2023-04-28T02:15:16;100703.56;;;3.81;85.36
71145;BME280;58812;47.698;17.726;2023-04-28T02:17:41;100707.44;;;3.89;84.96
71145;BME280;58812;47.698;17.726;2023-04-28T02:20:07;100691.44;;;3.91;85.17
71145;BME280;58812;47.698;17.726;2023-04-28T02:22:33;100697.97;;;3.99;84.76
71145;BME280;58812;47.698;17.726;2023-04-28T02:24:58;100698.37;;;3.93;85.16
71145;BME280;58812;47.698;17.726;2023-04-28T02:27:24;100708.37;;;4.02;84.63
71145;BME280;58812;47.698;17.726;2023-04-28T02:29:50;100701.84;;;4.08;85.01
71145;BME280;58812;47.698;17.726;2023-04-28T02:32:16;100698.94;;;4.13;84.56
71145;BME280;58812;47.698;17.726;2023-04-28T02:34:42;100697.97;;;4.14;83.94
71145;BME280;58812;47.698;17.726;2023-04-28T02:37:07;100695.91;;;4.05;83.95
71145;BME280;58812;47.698;17.726;2023-04-28T02:39:33;100698.34;;;4.08;83.72
71145;BME280;58812;47.698;17.726;2023-04-28T02:41:58;100692.31;;;4.06;84.22
71145;BME280;58812;47.698;17.726;2023-04-28T02:44:24;100689.84;;;4.17;83.92
71145;BME280;58812;47.698;17.726;2023-04-28T02:46:49;100694.87;;;4.21;83.65
71145;BME280;58812;47.698;17.726;2023-04-28T02:49:15;100692.28;;;4.20;83.40
71145;BME280;58812;47.698;17.726;2023-04-28T02:51:40;100686.25;;;4.18;83.51
71145;BME280;58812;47.698;17.726;2023-04-28T02:54:06;100689.66;;;4.20;83.69
71145;BME280;58812;47.698;17.726;2023-04-28T02:56:32;100687.78;;;4.22;83.12
71145;BME280;58812;47.698;17.726;2023-04-28T02:58:58;100689.66;;;4.20;82.75
71145;BME280;58812;47.698;17.726;2023-04-28T03:01:23;100690.50;;;4.20;82.54
71145;BME280;58812;47.698;17.726;2023-04-28T03:03:49;100692.41;;;4.18;82.66
71145;BME280;58812;47.698;17.726;2023-04-28T03:06:14;100689.19;;;4.13;82.28
71145;BME280;58812;47.698;17.726;2023-04-28T03:08:40;100694.31;;;4.16;82.36
71145;BME280;58812;47.698;17.726;2023-04-28T03:11:05;100697.22;;;4.12;82.46
71145;BME280;58812;47.698;17.726;2023-04-28T03:13:31;100690.69;;;4.03;82.41
71145;BME280;58812;47.698;17.726;2023-04-28T03:15:56;100692.41;;;4.04;82.87
71145;BME280;58812;47.698;17.726;2023-04-28T03:18:22;100698.28;;;4.09;83.04
71145;BME280;58812;47.698;17.726;2023-04-28T03:20:48;100695.13;;;4.02;82.96
71145;BME280;58812;47.698;17.726;2023-04-28T03:23:14;100693.34;;;4.03;82.89
71145;BME280;58812;47.698;17.726;2023-04-28T03:25:39;100693.06;;;3.93;83.00
71145;BME280;58812;47.698;17.726;2023-04-28T03:28:05;100682.00;;;3.87;83.46
71145;BME280;58812;47.698;17.726;2023-04-28T03:30:31;100681.16;;;3.86;83.34
71145;BME280;58812;47.698;17.726;2023-04-28T03:32:56;100690.53;;;3.92;83.82
71145;BME280;58812;47.698;17.726;2023-04-28T03:35:21;100696.09;;;3.87;83.72
71145;BME280;58812;47.698;17.726;2023-04-28T03:37:47;100679.53;;;3.84;84.09
71145;BME280;58812;47.698;17.726;2023-04-28T03:40:12;100686.06;;;3.92;83.63
71145;BME280;58812;47.698;17.726;2023-04-28T03:42:38;100683.50;;;4.05;83.45
71145;BME280;58812;47.698;17.726;2023-04-28T03:45:03;100679.06;;;4.06;83.39
71145;BME280;58812;47.698;17.726;2023-04-28T03:47:29;100675.28;;;4.10;83.30
71145;BME280;58812;47.698;17.726;2023-04-28T03:49:54;100677.56;;;4.16;82.67
71145;BME280;58812;47.698;17.726;2023-04-28T03:52:20;100677.91;;;4.24;83.01
71145;BME280;58812;47.698;17.726;2023-04-28T03:54:46;100680.75;;;4.21;82.76
71145;BME280;58812;47.698;17.726;2023-04-28T03:57:11;100680.38;;;4.27;83.00
71145;BME280;58812;47.698;17.726;2023-04-28T03:59:37;100679.22;;;4.31;82.51
71145;BME280;58812;47.698;17.726;2023-04-28T04:02:02;100678.09;;;4.35;82.54
71145;BME280;58812;47.698;17.726;2023-04-28T04:04:28;100680.47;;;4.40;82.61
71145;BME280;58812;47.698;17.726;2023-04-28T04:06:54;100676.25;;;4.50;82.48
71145;BME280;58812;47.698;17.726;2023-04-28T04:09:19;100681.09;;;4.58;82.16
71145;BME280;58812;47.698;17.726;2023-04-28T04:11:45;100674.00;;;4.58;81.65
71145;BME280;58812;47.698;17.726;2023-04-28T04:14:10;100680.78;;;4.62;81.60
71145;BME280;58812;47.698;17.726;2023-04-28T04:16:36;100682.97;;;4.70;81.74
71145;BME280;58812;47.698;17.726;2023-04-28T04:19:01;100685.50;;;4.71;81.76
71145;BME280;58812;47.698;17.726;2023-04-28T04:21:27;100689.75;;;4.74;81.60
71145;BME280;58812;47.698;17.726;2023-04-28T04:23:52;100698.91;;;4.82;81.65
71145;BME280;58812;47.698;17.726;2023-04-28T04:26:18;100695.03;;;4.88;81.56
71145;BME280;58812;47.698;17.726;2023-04-28T04:28:43;100691.94;;;4.81;81.83
71145;BME280;58812;47.698;17.726;2023-04-28T04:31:09;100698.91;;;4.82;81.94
71145;BME280;58812;47.698;17.726;2023-04-28T04:33:34;100692.47;;;4.87;82.67
71145;BME280;58812;47.698;17.726;2023-04-28T04:36:01;100701.37;;;4.86;82.37
71145;BME280;58812;47.698;17.726;2023-04-28T04:38:27;100697.28;;;4.94;82.05
71145;BME280;58812;47.698;17.726;2023-04-28T04:40:52;100706.44;;;5.03;82.10
71145;BME280;58812;47.698;17.726;2023-04-28T04:43:18;100699.69;;;5.12;81.34
71145;BME280;58812;47.698;17.726;2023-04-28T04:45:43;100698.72;;;5.13;80.97
71145;BME280;58812;47.698;17.726;2023-04-28T04:48:09;100696.62;;;5.18;80.69
71145;BME280;58812;47.698;17.726;2023-04-28T04:50:35;100702.91;;;5.29;80.70
71145;BME280;58812;47.698;17.726;2023-04-28T04:53:00;100697.38;;;5.32;80.57
71145;BME280;58812;47.698;17.726;2023-04-28T04:55:26;100700.06;;;5.45;80.28
71145;BME280;58812;47.698;17.726;2023-04-28T04:57:51;100698.91;;;5.49;79.74
71145;BME280;58812;47.698;17.726;2023-04-28T05:00:17;100705.31;;;5.59;79.47
71145;BME280;58812;47.698;17.726;2023-04-28T05:02:43;100711.06;;;5.79;79.15
71145;BME280;58812;47.698;17.726;2023-04-28T05:05:08;100706.19;;;5.85;78.73
71145;BME280;58812;47.698;17.726;2023-04-28T05:07:34;100708.53;;;5.90;78.64
71145;BME280;58812;47.698;17.726;2023-04-28T05:09:59;100706.62;;;5.92;79.11
71145;BME280;58812;47.698;17.726;2023-04-28T05:12:25;100704.41;;;5.99;78.47
71145;BME280;58812;47.698;17.726;2023-04-28T05:14:50;100698.16;;;6.12;78.00
71145;BME280;58812;47.698;17.726;2023-04-28T05:17:16;100701.53;;;6.14;77.69
71145;BME280;58812;47.698;17.726;2023-04-28T05:19:41;100697.72;;;6.19;77.96
71145;BME280;58812;47.698;17.726;2023-04-28T05:22:07;100695.34;;;6.27;77.50
71145;BME280;58812;47.698;17.726;2023-04-28T05:24:32;100695.53;;;6.49;77.27
71145;BME280;58812;47.698;17.726;2023-04-28T05:26:58;100697.38;;;6.73;76.10
71145;BME280;58812;47.698;17.726;2023-04-28T05:29:23;100703.97;;;6.80;75.64
71145;BME280;58812;47.698;17.726;2023-04-28T05:31:49;100696.50;;;6.85;75.52
71145;BME280;58812;47.698;17.726;2023-04-28T05:34:15;100697.06;;;7.01;75.84
71145;BME280;58812;47.698;17.726;2023-04-28T05:36:40;100689.28;;;7.22;75.46
71145;BME280;58812;47.698;17.726;2023-04-28T05:39:06;100694.97;;;7.41;74.48
71145;BME280;58812;47.698;17.726;2023-04-28T05:41:33;100691.97;;;7.57;74.58
71145;BME280;58812;47.698;17.726;2023-04-28T05:43:59;100691.31;;;7.78;74.64
71145;BME280;58812;47.698;17.726;2023-04-28T05:46:24;100685.88;;;7.90;73.74
71145;BME280;58812;47.698;17.726;2023-04-28T05:48:50;100692.75;;;7.93;73.34
71145;BME280;58812;47.698;17.726;2023-04-28T05:51:15;100692.78;;;8.04;73.04
71145;BME280;58812;47.698;17.726;2023-04-28T05:53:41;100691.47;;;8.32;71.83
71145;BME280;58812;47.698;17.726;2023-04-28T05:56:06;100699.84;;;8.61;70.67
71145;BME280;58812;47.698;17.726;2023-04-28T05:58:32;100702.25;;;8.75;68.72
71145;BME280;58812;47.698;17.726;2023-04-28T06:00:58;100707.66;;;8.96;68.48
71145;BME280;58812;47.698;17.726;2023-04-28T06:03:23;100690.97;;;9.15;67.53
71145;BME280;58812;47.698;17.726;2023-04-28T06:05:49;100701.72;;;9.25;66.49
71145;BME280;58812;47.698;17.726;2023-04-28T06:08:15;100695.25;;;9.39;65.46
71145;BME280;58812;47.698;17.726;2023-04-28T06:10:40;100698.91;;;9.58;64.88
71145;BME280;58812;47.698;17.726;2023-04-28T06:13:06;100701.13;;;9.74;63.47
71145;BME280;58812;47.698;17.726;2023-04-28T06:15:32;100707.94;;;9.78;61.04
71145;BME280;58812;47.698;17.726;2023-04-28T06:17:57;100694.03;;;9.84;61.15
71145;BME280;58812;47.698;17.726;2023-04-28T06:20:23;100701.53;;;9.90;59.32
71145;BME280;58812;47.698;17.726;2023-04-28T06:22:49;100700.28;;;9.95;58.67
71145;BME280;58812;47.698;17.726;2023-04-28T06:25:14;100711.78;;;9.85;58.88
71145;BME280;58812;47.698;17.726;2023-04-28T06:27:40;100703.09;;;9.93;58.94
71145;BME280;58812;47.698;17.726;2023-04-28T06:30:06;100704.25;;;10.00;59.05
71145;BME280;58812;47.698;17.726;2023-04-28T06:32:31;100701.44;;;10.02;58.38
71145;BME280;58812;47.698;17.726;2023-04-28T06:34:57;100703.31;;;10.11;58.66
71145;BME280;58812;47.698;17.726;2023-04-28T06:37:23;100711.34;;;10.11;58.20
71145;BME280;58812;47.698;17.726;2023-04-28T06:39:48;100711.16;;;10.24;58.10
71145;BME280;58812;47.698;17.726;2023-04-28T06:42:14;100702.03;;;10.26;57.97
71145;BME280;58812;47.698;17.726;2023-04-28T06:44:42;100704.59;;;10.37;57.68
71145;BME280;58812;47.698;17.726;2023-04-28T06:47:08;100702.13;;;10.46;57.29
71145;BME280;58812;47.698;17.726;2023-04-28T06:49:33;100701.63;;;10.31;58.18
71145;BME280;58812;47.698;17.726;2023-04-28T06:51:59;100704.53;;;10.58;57.98
71145;BME280;58812;47.698;17.726;2023-04-28T06:54:24;100700.81;;;10.80;57.66
71145;BME280;58812;47.698;17.726;2023-04-28T06:56:50;100702.66;;;10.89;56.97
71145;BME280;58812;47.698;17.726;2023-04-28T06:59:16;100697.59;;;11.06;57.01
71145;BME280;58812;47.698;17.726;2023-04-28T07:01:42;100701.16;;;11.26;57.58
71145;BME280;58812;47.698;17.726;2023-04-28T07:04:07;100699.03;;;11.48;56.58
71145;BME280;58812;47.698;17.726;2023-04-28T07:06:33;100694.97;;;11.44;56.11
71145;BME280;58812;47.698;17.726;2023-04-28T07:08:58;100701.00;;;11.56;56.10
71145;BME280;58812;47.698;17.726;2023-04-28T07:11:23;100691.53;;;11.71;55.80
71145;BME280;58812;47.698;17.726;2023-04-28T07:13:49;100688.41;;;11.95;55.92
71145;BME280;58812;47.698;17.726;2023-04-28T07:16:18;100682.72;;;12.08;55.50
71145;BME280;58812;47.698;17.726;2023-04-28T07:18:45;100684.37;;;12.19;54.89
71145;BME280;58812;47.698;17.726;2023-04-28T07:21:10;100670.69;;;12.22;53.96
71145;BME280;58812;47.698;17.726;2023-04-28T07:23:36;100666.75;;;13.17;52.34
71145;BME280;58812;47.698;17.726;2023-04-28T07:26:03;100666.59;;;13.36;49.99
71145;BME280;58812;47.698;17.726;2023-04-28T07:28:28;100673.97;;;13.70;49.15
71145;BME280;58812;47.698;17.726;2023-04-28T07:30:54;100666.50;;;13.46;49.84
71145;BME280;58812;47.698;17.726;2023-04-28T07:33:19;100659.97;;;13.13;48.54
71145;BME280;58812;47.698;17.726;2023-04-28T07:35:45;100663.06;;;13.53;47.25
71145;BME280;58812;47.698;17.726;2023-04-28T07:38:10;100664.31;;;13.41;47.07
71145;BME280;58812;47.698;17.726;2023-04-28T07:40:36;100659.03;;;13.57;46.97
71145;BME280;58812;47.698;17.726;2023-04-28T07:43:01;100661.88;;;13.56;48.02
71145;BME280;58812;47.698;17.726;2023-04-28T07:45:28;100646.63;;;13.82;46.85
71145;BME280;58812;47.698;17.726;2023-04-28T07:47:53;100646.84;;;13.89;45.44
71145;BME280;58812;47.698;17.726;2023-04-28T07:50:19;100654.63;;;14.68;44.49
71145;BME280;58812;47.698;17.726;2023-04-28T07:52:44;100652.47;;;14.80;43.51
71145;BME280;58812;47.698;17.726;2023-04-28T07:55:10;100649.59;;;14.39;44.11
71145;BME280;58812;47.698;17.726;2023-04-28T07:57:35;100649.78;;;14.80;42.92
71145;BME280;58812;47.698;17.726;2023-04-28T08:00:01;100640.94;;;15.37;40.48
71145;BME280;58812;47.698;17.726;2023-04-28T08:02:27;100643.78;;;15.03;41.62
71145;BME280;58812;47.698;17.726;2023-04-28T08:04:52;100645.34;;;14.55;41.55
71145;BME280;58812;47.698;17.726;2023-04-28T08:07:18;100642.94;;;15.10;41.29
71145;BME280;58812;47.698;17.726;2023-04-28T08:09:43;100644.66;;;15.44;40.66
71145;BME280;58812;47.698;17.726;2023-04-28T08:12:12;100640.94;;;15.20;41.42
71145;BME280;58812;47.698;17.726;2023-04-28T08:14:37;100655.62;;;14.33;39.90
71145;BME280;58812;47.698;17.726;2023-04-28T08:17:03;100645.84;;;14.24;40.41
71145;BME280;58812;47.698;17.726;2023-04-28T08:19:28;100647.19;;;14.28;41.04
71145;BME280;58812;47.698;17.726;2023-04-28T08:21:54;100643.63;;;14.20;40.94
71145;BME280;58812;47.698;17.726;2023-04-28T08:24:19;100641.75;;;13.86;40.71
71145;BME280;58812;47.698;17.726;2023-04-28T08:26:45;100637.47;;;14.01;41.70
71145;BME280;58812;47.698;17.726;2023-04-28T08:29:10;100633.87;;;13.93;40.79
71145;BME280;58812;47.698;17.726;2023-04-28T08:31:37;100642.03;;;14.01;41.51
71145;BME280;58812;47.698;17.726;2023-04-28T08:34:02;100636.22;;;14.22;41.96
71145;BME280;58812;47.698;17.726;2023-04-28T08:36:28;100640.41;;;14.16;41.74
71145;BME280;58812;47.698;17.726;2023-04-28T08:38:56;100636.06;;;14.57;41.94
71145;BME280;58812;47.698;17.726;2023-04-28T08:41:24;100638.09;;;14.55;41.47
71145;BME280;58812;47.698;17.726;2023-04-28T08:43:52;100640.81;;;14.63;40.70
71145;BME280;58812;47.698;17.726;2023-04-28T08:46:20;100655.34;;;14.87;39.90
71145;BME280;58812;47.698;17.726;2023-04-28T08:48:48;100652.16;;;14.41;40.16
71145;BME280;58812;47.698;17.726;2023-04-28T08:51:26;100650.69;;;14.47;40.66
71145;BME280;58812;47.698;17.726;2023-04-28T08:53:58;100645.00;;;14.24;41.87
71145;BME280;58812;47.698;17.726;2023-04-28T08:56:26;100645.44;;;14.11;40.52
71145;BME280;58812;47.698;17.726;2023-04-28T08:58:56;100660.16;;;14.25;41.47
71145;BME280;58812;47.698;17.726;2023-04-28T09:01:22;100647.72;;;14.32;40.77
71145;BME280;58812;47.698;17.726;2023-04-28T09:03:47;100652.47;;;14.04;39.50
71145;BME280;58812;47.698;17.726;2023-04-28T09:06:13;100644.72;;;14.35;40.46
71145;BME280;58812;47.698;17.726;2023-04-28T09:08:38;100652.72;;;14.19;41.17
71145;BME280;58812;47.698;17.726;2023-04-28T09:11:08;100643.28;;;14.14;40.26
71145;BME280;58812;47.698;17.726;2023-04-28T09:13:35;100644.94;;;14.15;41.45
71145;BME280;58812;47.698;17.726;2023-04-28T09:16:01;100638.62;;;14.33;42.09
71145;BME280;58812;47.698;17.726;2023-04-28T09:18:28;100637.25;;;14.29;42.59
71145;BME280;58812;47.698;17.726;2023-04-28T09:21:02;100633.25;;;14.33;42.17
71145;BME280;58812;47.698;17.726;2023-04-28T09:23:28;100630.19;;;14.20;42.47
71145;BME280;58812;47.698;17.726;2023-04-28T09:26:03;100614.56;;;14.31;40.74
71145;BME280;58812;47.698;17.726;2023-04-28T09:28:31;100611.03;;;14.73;40.31
71145;BME280;58812;47.698;17.726;2023-04-28T09:30:56;100605.84;;;14.96;40.31
71145;BME280;58812;47.698;17.726;2023-04-28T09:33:22;100608.69;;;14.86;40.01
71145;BME280;58812;47.698;17.726;2023-04-28T09:35:47;100610.81;;;14.58;39.15
71145;BME280;58812;47.698;17.726;2023-04-28T09:38:18;100609.87;;;14.92;39.85
71145;BME280;58812;47.698;17.726;2023-04-28T09:41:03;100603.34;;;14.44;39.42
71145;BME280;58812;47.698;17.726;2023-04-28T09:43:33;100608.50;;;14.80;38.94
71145;BME280;58812;47.698;17.726;2023-04-28T09:46:01;100593.97;;;14.64;39.07
71145;BME280;58812;47.698;17.726;2023-04-28T09:48:33;100596.34;;;14.59;39.85
71145;BME280;58812;47.698;17.726;2023-04-28T09:51:01;100588.34;;;14.41;39.83
71145;BME280;58812;47.698;17.726;2023-04-28T09:53:27;100594.25;;;14.45;39.79
71145;BME280;58812;47.698;17.726;2023-04-28T09:55:54;100590.88;;;14.35;38.90
71145;BME280;58812;47.698;17.726;2023-04-28T09:58:22;100589.25;;;14.58;39.11
71145;BME280;58812;47.698;17.726;2023-04-28T10:00:58;100589.69;;;14.46;40.42
71145;BME280;58812;47.698;17.726;2023-04-28T10:03:28;100583.59;;;14.94;39.45
71145;BME280;58812;47.698;17.726;2023-04-28T10:05:56;100581.88;;;14.60;41.29
71145;BME280;58812;47.698;17.726;2023-04-28T10:08:23;100581.69;;;14.54;38.83
71145;BME280;58812;47.698;17.726;2023-04-28T10:10:49;100576.75;;;14.41;39.83
71145;BME280;58812;47.698;17.726;2023-04-28T10:13:18;100583.72;;;14.60;40.47
71145;BME280;58812;47.698;17.726;2023-04-28T10:15:44;100572.44;;;14.64;40.12
71145;BME280;58812;47.698;17.726;2023-04-28T10:18:14;100570.13;;;14.86;40.21
71145;BME280;58812;47.698;17.726;2023-04-28T10:20:53;100563.66;;;14.54;39.42
71145;BME280;58812;47.698;17.726;2023-04-28T10:23:46;100563.88;;;14.27;40.24
71145;BME280;58812;47.698;17.726;2023-04-28T10:26:17;100557.53;;;14.36;40.16
71145;BME280;58812;47.698;17.726;2023-04-28T10:28:46;100552.81;;;14.38;41.12
71145;BME280;58812;47.698;17.726;2023-04-28T10:31:14;100544.22;;;14.34;40.43
71145;BME280;58812;47.698;17.726;2023-04-28T10:33:40;100538.81;;;14.34;39.83
71145;BME280;58812;47.698;17.726;2023-04-28T10:36:07;100535.41;;;14.16;39.44
71145;BME280;58812;47.698;17.726;2023-04-28T10:38:33;100532.09;;;14.30;40.05
71145;BME280;58812;47.698;17.726;2023-04-28T10:40:59;100528.25;;;14.41;39.42
71145;BME280;58812;47.698;17.726;2023-04-28T10:48:19;100508.78;;;14.55;39.77
71145;BME280;58812;47.698;17.726;2023-04-28T10:56:08;100506.22;;;15.27;39.43
71145;BME280;58812;47.698;17.726;2023-04-28T10:58:33;100509.56;;;15.54;39.94
71145;BME280;58812;47.698;17.726;2023-04-28T11:11:25;100502.53;;;16.77;38.71
71145;BME280;58812;47.698;17.726;2023-04-28T11:16:56;100491.69;;;17.52;37.41
71145;BME280;58812;47.698;17.726;2023-04-28T11:19:27;100486.94;;;17.99;36.27
71145;BME280;58812;47.698;17.726;2023-04-28T11:21:57;100484.56;;;18.47;35.09
71145;BME280;58812;47.698;17.726;2023-04-28T11:24:24;100479.00;;;18.33;34.28
71145;BME280;58812;47.698;17.726;2023-04-28T11:26:50;100478.59;;;18.51;35.36
71145;BME280;58812;47.698;17.726;2023-04-28T11:29:17;100476.12;;;18.56;34.03
71145;BME280;58812;47.698;17.726;2023-04-28T11:31:49;100471.88;;;19.18;34.63
71145;BME280;58812;47.698;17.726;2023-04-28T11:34:19;100474.87;;;19.02;34.59
71145;BME280;58812;47.698;17.726;2023-04-28T11:36:48;100467.44;;;19.10;34.51
71145;BME280;58812;47.698;17.726;2023-04-28T11:39:14;100465.47;;;18.98;34.09
71145;BME280;58812;47.698;17.726;2023-04-28T11:41:42;100445.09;;;18.80;34.47
71145;BME280;58812;47.698;17.726;2023-04-28T11:44:21;100458.13;;;18.70;34.61
71145;BME280;58812;47.698;17.726;2023-04-28T11:46:57;100445.12;;;18.23;34.93
71145;BME280;58812;47.698;17.726;2023-04-28T11:49:31;100439.50;;;18.88;34.55
71145;BME280;58812;47.698;17.726;2023-04-28T11:52:04;100442.12;;;18.75;34.13
71145;BME280;58812;47.698;17.726;2023-04-28T11:54:30;100440.25;;;18.76;34.64
71145;BME280;58812;47.698;17.726;2023-04-28T11:56:57;100427.41;;;18.91;34.08
71145;BME280;58812;47.698;17.726;2023-04-28T11:59:27;100439.94;;;19.20;33.97
71145;BME280;58812;47.698;17.726;2023-04-28T12:01:55;100434.97;;;18.95;33.85
71145;BME280;58812;47.698;17.726;2023-04-28T12:07:07;100422.66;;;18.29;36.73
71145;BME280;58812;47.698;17.726;2023-04-28T12:09:35;100417.75;;;18.82;34.64
71145;BME280;58812;47.698;17.726;2023-04-28T12:12:05;100402.69;;;18.79;35.97
71145;BME280;58812;47.698;17.726;2023-04-28T12:17:32;100388.63;;;19.25;34.72
71145;BME280;58812;47.698;17.726;2023-04-28T12:20:02;100380.16;;;19.41;34.44
71145;BME280;58812;47.698;17.726;2023-04-28T12:22:28;100380.44;;;20.27;33.38
71145;BME280;58812;47.698;17.726;2023-04-28T12:25:11;100377.53;;;20.29;32.40
71145;BME280;58812;47.698;17.726;2023-04-28T12:27:38;100368.44;;;19.34;34.71
71145;BME280;58812;47.698;17.726;2023-04-28T12:32:46;100365.78;;;19.47;33.96
71145;BME280;58812;47.698;17.726;2023-04-28T12:35:11;100344.50;;;19.58;34.25
71145;BME280;58812;47.698;17.726;2023-04-28T12:37:37;100364.09;;;20.01;33.70
71145;BME280;58812;47.698;17.726;2023-04-28T12:40:04;100364.19;;;19.60;34.03
71145;BME280;58812;47.698;17.726;2023-04-28T12:42:30;100352.59;;;19.99;33.64
71145;BME280;58812;47.698;17.726;2023-04-28T12:44:56;100352.75;;;19.30;34.66
71145;BME280;58812;47.698;17.726;2023-04-28T12:47:21;100358.28;;;19.15;35.01
71145;BME280;58812;47.698;17.726;2023-04-28T12:49:47;100351.59;;;19.11;35.13
71145;BME280;58812;47.698;17.726;2023-04-28T12:52:14;100350.84;;;19.30;34.95
71145;BME280;58812;47.698;17.726;2023-04-28T12:54:40;100335.09;;;19.54;34.30
71145;BME280;58812;47.698;17.726;2023-04-28T12:57:11;100337.06;;;19.32;35.72
71145;BME280;58812;47.698;17.726;2023-04-28T12:59:37;100338.56;;;19.34;36.27
71145;BME280;58812;47.698;17.726;2023-04-28T13:02:03;100346.31;;;19.44;33.69
71145;BME280;58812;47.698;17.726;2023-04-28T13:04:29;100341.28;;;19.34;34.91
71145;BME280;58812;47.698;17.726;2023-04-28T13:06:56;100352.44;;;19.53;35.62
71145;BME280;58812;47.698;17.726;2023-04-28T13:09:23;100337.47;;;19.63;34.17
71145;BME280;58812;47.698;17.726;2023-04-28T13:11:49;100331.53;;;19.05;34.76
71145;BME280;58812;47.698;17.726;2023-04-28T13:14:14;100323.97;;;19.01;35.24